createdAt,value
2017-11-07T07:12:53.263Z,9.81
2017-11-07T07:15:19.944Z,9.79
2017-11-07T07:17:47.361Z,9.92
2017-11-07T07:20:14.059Z,10.03
2017-11-07T07:22:41.468Z,10.07
2017-11-07T07:25:08.207Z,10.17
2017-11-07T07:27:34.857Z,10.30
2017-11-07T07:30:01.519Z,10.40
2017-11-07T07:32:28.193Z,10.47
2017-11-07T07:34:54.903Z,10.53
2017-11-07T07:37:21.556Z,10.55
2017-11-07T07:39:48.266Z,10.56
2017-11-07T07:42:14.922Z,10.60
2017-11-07T07:44:41.599Z,10.66
2017-11-07T07:47:09.018Z,10.66
2017-11-07T07:49:35.718Z,10.30
2017-11-07T07:52:02.397Z,10.24
2017-11-07T07:54:29.056Z,10.53
2017-11-07T07:56:55.748Z,10.48
2017-11-07T07:59:22.429Z,10.39
2017-11-07T08:01:49.139Z,10.52
2017-11-07T08:04:17.082Z,10.59
2017-11-07T08:06:44.599Z,10.80
2017-11-07T08:09:11.385Z,10.93
2017-11-07T08:11:38.143Z,10.73
2017-11-07T08:14:05.634Z,10.94
2017-11-07T08:16:32.480Z,11.02
2017-11-07T08:18:59.142Z,10.97
2017-11-07T08:21:25.881Z,10.74
2017-11-07T08:23:52.578Z,10.86
2017-11-07T08:26:19.993Z,10.85
2017-11-07T08:28:46.687Z,10.94
2017-11-07T08:31:14.220Z,11.13
2017-11-07T08:33:41.676Z,11.03
2017-11-07T08:36:08.339Z,11.08
2017-11-07T08:38:36.676Z,11.26
2017-11-07T08:41:03.366Z,11.24
2017-11-07T08:43:30.813Z,11.27
2017-11-07T08:45:57.681Z,11.28
2017-11-07T08:48:25.071Z,11.24
2017-11-07T08:50:52.479Z,11.27
2017-11-07T08:53:19.159Z,11.23
2017-11-07T08:55:45.842Z,11.31
2017-11-07T08:58:12.537Z,11.37
2017-11-07T09:00:39.335Z,11.34
2017-11-07T09:03:06.029Z,11.19
2017-11-07T09:05:33.422Z,11.37
2017-11-07T09:08:00.178Z,11.52
2017-11-07T09:10:26.943Z,11.63
2017-11-07T09:12:53.641Z,11.73
2017-11-07T09:15:20.535Z,11.81
2017-11-07T09:17:47.251Z,11.79
2017-11-07T09:20:14.098Z,12.00
2017-11-07T09:22:40.835Z,12.06
2017-11-07T09:25:07.521Z,12.14
2017-11-07T09:27:34.201Z,12.21
2017-11-07T09:30:00.898Z,12.18
2017-11-07T09:32:27.551Z,12.14
2017-11-07T09:34:54.950Z,12.22
2017-11-07T09:37:21.634Z,11.95
2017-11-07T09:39:48.302Z,12.20
2017-11-07T09:42:15.740Z,12.20
2017-11-07T09:44:42.431Z,12.08
2017-11-07T09:47:09.073Z,12.02
2017-11-07T09:49:35.754Z,11.91
2017-11-07T09:52:02.454Z,11.36
2017-11-07T09:54:29.177Z,11.39
2017-11-07T09:56:56.618Z,11.72
2017-11-07T09:59:23.303Z,11.77
2017-11-07T10:01:49.976Z,11.71
2017-11-07T10:04:16.643Z,11.71
2017-11-07T10:06:43.408Z,11.84
2017-11-07T10:09:10.089Z,11.82
2017-11-07T10:11:36.764Z,11.91
2017-11-07T10:14:03.432Z,11.91
2017-11-07T10:16:30.075Z,11.87
2017-11-07T10:18:56.757Z,11.88
2017-11-07T10:21:23.517Z,11.79
2017-11-07T10:23:50.286Z,11.89
2017-11-07T10:26:17.531Z,12.01
2017-11-07T10:28:44.290Z,11.94
2017-11-07T10:31:11.002Z,11.70
2017-11-07T10:33:38.530Z,11.75
2017-11-07T10:36:06.047Z,11.82
2017-11-07T10:38:32.724Z,11.53
2017-11-07T10:41:00.514Z,11.48
2017-11-07T10:43:27.617Z,11.40
2017-11-07T10:45:54.441Z,11.47
2017-11-07T10:48:21.111Z,11.53
2017-11-07T10:50:47.795Z,11.34
2017-11-07T10:53:14.455Z,11.30
2017-11-07T10:55:41.131Z,11.20
2017-11-07T10:58:07.885Z,11.12
2017-11-07T11:00:34.703Z,11.30
2017-11-07T11:03:01.383Z,11.35
2017-11-07T11:05:28.109Z,11.52
2017-11-07T11:07:55.749Z,11.66
2017-11-07T11:10:22.525Z,11.54
2017-11-07T11:12:49.231Z,11.67
2017-11-07T11:15:15.930Z,11.65
2017-11-07T11:17:42.580Z,11.82
2017-11-07T11:20:10.918Z,11.91
2017-11-07T11:22:37.704Z,12.23
2017-11-07T11:25:05.218Z,12.18
2017-11-07T11:27:31.972Z,12.19
2017-11-07T11:29:58.670Z,12.37
2017-11-07T11:32:26.090Z,12.47
2017-11-07T11:34:52.825Z,12.58
2017-11-07T11:37:19.574Z,12.66
2017-11-07T11:39:47.015Z,12.64
2017-11-07T11:42:13.703Z,12.72
2017-11-07T11:44:40.424Z,12.67
2017-11-07T11:47:07.127Z,12.61
2017-11-07T11:49:33.805Z,12.47
2017-11-07T11:52:00.500Z,12.09
2017-11-07T11:54:27.214Z,12.09
2017-11-07T11:56:55.224Z,11.90
2017-11-07T11:59:21.919Z,11.96
2017-11-07T12:01:48.682Z,11.67
2017-11-07T12:04:16.163Z,11.66
2017-11-07T12:06:43.570Z,11.65
2017-11-07T12:09:10.287Z,11.79
2017-11-07T12:11:36.988Z,11.76
2017-11-07T12:14:03.675Z,11.74
2017-11-07T12:16:30.361Z,11.62
2017-11-07T12:18:57.092Z,11.49
2017-11-07T12:21:23.811Z,11.69
2017-11-07T12:23:50.509Z,11.78
2017-11-07T12:26:18.038Z,11.67
2017-11-07T12:28:44.775Z,11.71
2017-11-07T12:31:12.246Z,11.52
2017-11-07T12:33:38.993Z,11.40
2017-11-07T12:36:05.740Z,11.56
2017-11-07T12:38:32.440Z,11.25
2017-11-07T12:40:59.131Z,11.19
2017-11-07T12:43:25.811Z,11.22
2017-11-07T12:45:53.209Z,11.15
2017-11-07T12:48:19.869Z,11.20
2017-11-07T12:51:05.951Z,11.03
2017-11-07T12:53:32.687Z,10.80
2017-11-07T12:55:59.382Z,10.73
2017-11-07T12:58:26.811Z,10.73
2017-11-07T13:00:54.273Z,10.58
2017-11-07T13:03:20.944Z,10.59
2017-11-07T13:05:48.496Z,10.53
2017-11-07T13:08:15.211Z,10.55
2017-11-07T13:10:41.842Z,10.70
2017-11-07T13:13:08.524Z,10.73
2017-11-07T13:15:35.215Z,10.75
2017-11-07T13:18:01.893Z,10.54
2017-11-07T13:20:28.565Z,10.58
2017-11-07T13:22:55.243Z,10.69
2017-11-07T13:25:21.940Z,10.69
2017-11-07T13:27:48.612Z,10.69
2017-11-07T13:30:16.062Z,10.71
2017-11-07T13:32:43.456Z,10.41
2017-11-07T13:35:10.151Z,10.23
2017-11-07T13:37:36.862Z,10.29
2017-11-07T13:40:03.615Z,10.29
2017-11-07T13:42:30.342Z,10.35
2017-11-07T13:44:57.019Z,10.37
2017-11-07T13:47:23.654Z,10.35
2017-11-07T13:49:50.312Z,10.31
2017-11-07T13:52:16.993Z,10.19
2017-11-07T13:54:43.648Z,10.21
2017-11-07T13:57:10.301Z,10.33
2017-11-07T13:59:36.978Z,10.39
2017-11-07T14:02:03.646Z,10.39
2017-11-07T14:04:31.045Z,10.43
2017-11-07T14:06:57.701Z,10.54
2017-11-07T14:09:24.425Z,10.53
2017-11-07T14:11:51.085Z,10.44
2017-11-07T14:14:17.803Z,10.57
2017-11-07T14:16:44.470Z,10.47
2017-11-07T14:19:11.111Z,10.46
2017-11-07T14:21:37.844Z,10.49
2017-11-07T14:24:04.526Z,10.36
2017-11-07T14:26:31.211Z,10.33
2017-11-07T14:28:57.928Z,10.38
2017-11-07T14:31:25.327Z,10.34
2017-11-07T14:33:51.990Z,10.29
2017-11-07T14:36:18.695Z,10.32
2017-11-07T14:38:45.363Z,10.34
2017-11-07T14:41:12.027Z,10.28
2017-11-07T14:43:38.724Z,10.36
2017-11-07T14:46:05.428Z,10.28
2017-11-07T14:48:32.083Z,10.32
2017-11-07T14:50:59.519Z,10.31
2017-11-07T14:53:26.251Z,10.10
2017-11-07T14:55:52.920Z,10.00
2017-11-07T14:58:19.630Z,9.94
2017-11-07T15:00:46.332Z,9.98
2017-11-07T15:03:14.735Z,10.03
2017-11-07T15:05:41.495Z,10.07
2017-11-07T15:08:08.193Z,10.04
2017-11-07T15:10:35.614Z,9.98
2017-11-07T15:13:02.314Z,9.94
2017-11-07T15:15:29.011Z,10.00
2017-11-07T15:17:55.667Z,10.05
2017-11-07T15:20:22.387Z,10.07
2017-11-07T15:22:49.074Z,10.00
2017-11-07T15:25:16.463Z,9.93
2017-11-07T15:27:43.134Z,9.98
2017-11-07T15:30:09.799Z,9.97
2017-11-07T15:32:37.218Z,9.79
2017-11-07T15:35:03.929Z,9.79
2017-11-07T15:37:30.590Z,9.78
2017-11-07T15:39:57.253Z,9.75
2017-11-07T15:42:23.957Z,9.80
2017-11-07T15:44:50.629Z,9.82
2017-11-07T15:47:17.287Z,9.56
2017-11-07T15:49:44.000Z,9.71
2017-11-07T15:52:10.762Z,9.72
2017-11-07T15:54:37.466Z,9.58
2017-11-07T15:57:04.896Z,9.57
2017-11-07T15:59:31.566Z,9.49
2017-11-07T16:01:58.977Z,9.41
2017-11-07T16:04:25.650Z,9.43
2017-11-07T16:06:52.369Z,9.47
2017-11-07T16:09:19.202Z,9.26
2017-11-07T16:11:45.891Z,9.27
2017-11-07T16:14:12.552Z,9.37
2017-11-07T16:16:39.991Z,9.51
2017-11-07T16:19:06.679Z,9.59
2017-11-07T16:21:33.349Z,9.64
2017-11-07T16:24:00.048Z,9.69
2017-11-07T16:26:26.762Z,9.70
2017-11-07T16:28:53.523Z,9.78
2017-11-07T16:31:20.937Z,9.79
2017-11-07T16:33:47.650Z,9.80
2017-11-07T16:36:14.323Z,9.81
2017-11-07T16:38:41.005Z,9.81
2017-11-07T16:41:08.455Z,9.87
2017-11-07T16:43:35.981Z,9.78
2017-11-07T16:46:02.695Z,9.85
2017-11-07T16:48:29.405Z,9.91
2017-11-07T16:50:56.115Z,9.69
2017-11-07T16:53:22.778Z,9.76
2017-11-07T16:55:49.564Z,9.88
2017-11-07T16:58:17.026Z,9.79
2017-11-07T17:00:44.439Z,9.78
2017-11-07T17:03:11.133Z,9.67
2017-11-07T17:05:37.798Z,9.79
2017-11-07T17:08:04.483Z,9.89
2017-11-07T17:10:31.204Z,9.83
2017-11-07T17:12:57.876Z,9.77
2017-11-07T17:15:24.558Z,9.78
2017-11-07T17:17:51.230Z,9.86
2017-11-07T17:20:17.922Z,9.87
2017-11-07T17:22:45.330Z,9.82
2017-11-07T17:25:12.135Z,9.73
2017-11-07T17:27:38.831Z,9.57
2017-11-07T17:30:05.503Z,9.53
2017-11-07T17:32:32.991Z,9.44
2017-11-07T17:34:59.684Z,9.33
2017-11-07T17:37:26.419Z,9.20
2017-11-07T17:39:53.107Z,9.37
2017-11-07T17:42:20.530Z,9.44
2017-11-07T17:44:47.216Z,9.46
2017-11-07T17:47:14.630Z,9.55
2017-11-07T17:49:41.328Z,9.51
2017-11-07T17:52:08.041Z,9.39
2017-11-07T17:54:35.475Z,9.48
2017-11-07T17:57:02.178Z,9.45
2017-11-07T17:59:28.868Z,9.36
2017-11-07T18:01:55.597Z,9.32
2017-11-07T18:04:23.027Z,9.44
2017-11-07T18:06:49.762Z,9.46
2017-11-07T18:09:16.454Z,9.31
2017-11-07T18:11:43.175Z,9.22
2017-11-07T18:14:09.851Z,9.31
2017-11-07T18:16:36.683Z,9.21
2017-11-07T18:19:03.879Z,9.40
2017-11-07T18:21:31.307Z,9.45
2017-11-07T18:23:58.067Z,9.30
2017-11-07T18:26:24.776Z,9.48
2017-11-07T18:28:51.450Z,9.44
2017-11-07T18:31:18.258Z,9.23
2017-11-07T18:33:44.998Z,9.21
2017-11-07T18:36:11.695Z,9.23
2017-11-07T18:38:39.124Z,9.21
2017-11-07T18:41:05.852Z,9.04
2017-11-07T18:43:32.540Z,8.91
2017-11-07T18:45:59.978Z,8.96
2017-11-07T18:48:26.669Z,9.02
2017-11-07T18:50:53.343Z,9.00
2017-11-07T18:53:20.861Z,9.02
2017-11-07T18:55:48.346Z,9.03
2017-11-07T18:58:15.052Z,9.11
2017-11-07T19:00:41.785Z,9.19
2017-11-07T19:03:08.455Z,9.27
2017-11-07T19:05:35.181Z,9.26
2017-11-07T19:08:02.658Z,9.18
2017-11-07T19:10:30.270Z,9.26
2017-11-07T19:12:57.001Z,9.39
2017-11-07T19:15:23.721Z,9.34
2017-11-07T19:17:50.750Z,9.33
2017-11-07T19:20:19.352Z,9.42
2017-11-07T19:22:47.494Z,9.52
2017-11-07T19:25:14.295Z,9.57
2017-11-07T19:27:41.005Z,9.56
2017-11-07T19:30:08.491Z,9.59
2017-11-07T19:32:35.275Z,9.60
2017-11-07T19:35:02.038Z,9.58
2017-11-07T19:37:28.757Z,9.68
2017-11-07T19:39:55.480Z,9.74
2017-11-07T19:42:22.219Z,9.76
2017-11-07T19:44:48.961Z,9.73
2017-11-07T19:47:15.697Z,9.75
2017-11-07T19:49:43.503Z,9.74
2017-11-07T19:52:10.385Z,9.77
2017-11-07T19:54:37.971Z,9.76
2017-11-07T19:57:05.390Z,9.76
2017-11-07T19:59:32.160Z,9.80
2017-11-07T20:01:59.725Z,9.71
2017-11-07T20:04:26.518Z,9.74
2017-11-07T20:06:54.326Z,9.74
2017-11-07T20:09:21.044Z,9.81
2017-11-07T20:11:47.728Z,9.83
2017-11-07T20:14:15.182Z,9.75
2017-11-07T20:16:42.005Z,9.60
2017-11-07T20:19:08.736Z,9.74
2017-11-07T20:21:36.205Z,9.61
2017-11-07T20:24:04.766Z,9.32
2017-11-07T20:26:31.460Z,9.41
2017-11-07T20:28:58.192Z,9.39
2017-11-07T20:31:24.904Z,9.42
2017-11-07T20:33:52.469Z,9.31
2017-11-07T20:36:19.263Z,9.43
2017-11-07T20:38:46.316Z,9.35
2017-11-07T20:41:13.950Z,9.30
2017-11-07T20:43:41.610Z,9.12
2017-11-07T20:46:08.380Z,8.99
2017-11-07T20:48:35.138Z,9.09
2017-11-07T20:51:02.656Z,9.12
2017-11-07T20:53:30.058Z,9.10
2017-11-07T20:55:56.726Z,9.39
2017-11-07T20:58:24.060Z,9.50
2017-11-07T21:00:51.506Z,9.62
2017-11-07T21:03:18.189Z,9.49
2017-11-07T21:05:44.942Z,9.52
2017-11-07T21:08:11.802Z,9.56
2017-11-07T21:10:38.576Z,9.60
2017-11-07T21:13:05.648Z,9.31
2017-11-07T21:15:33.083Z,9.30
2017-11-07T21:17:59.773Z,9.43
2017-11-07T21:20:26.482Z,9.50
2017-11-07T21:22:53.197Z,9.47
2017-11-07T21:25:19.974Z,9.50
2017-11-07T21:27:46.719Z,9.54
2017-11-07T21:30:13.441Z,9.62
2017-11-07T21:32:41.068Z,9.57
2017-11-07T21:35:07.823Z,9.58
2017-11-07T21:37:35.151Z,9.67
2017-11-07T21:40:02.612Z,9.70
2017-11-07T21:42:30.050Z,9.76
2017-11-07T21:44:56.762Z,9.69
2017-11-07T21:47:23.447Z,9.75
2017-11-07T21:49:50.156Z,9.75
2017-11-07T21:52:16.903Z,9.78
2017-11-07T21:54:43.596Z,9.68
2017-11-07T21:57:11.081Z,9.69
2017-11-07T21:59:37.767Z,9.71
2017-11-07T22:02:04.502Z,9.75
2017-11-07T22:04:31.180Z,9.73
2017-11-07T22:06:58.581Z,9.78
2017-11-07T22:09:26.254Z,9.84
2017-11-07T22:11:53.746Z,9.76
2017-11-07T22:14:20.508Z,9.81
2017-11-07T22:16:52.752Z,9.88
2017-11-07T22:19:20.380Z,9.95
2017-11-07T22:21:48.980Z,9.86
2017-11-07T22:24:15.669Z,9.93
2017-11-07T22:26:42.386Z,9.94
2017-11-07T22:29:09.952Z,9.75
2017-11-07T22:31:36.676Z,9.73
2017-11-07T22:34:04.152Z,9.84
2017-11-07T22:36:30.812Z,9.92
2017-11-07T22:38:57.473Z,9.97
2017-11-07T22:41:24.258Z,9.89
2017-11-07T22:43:51.921Z,9.84
2017-11-07T22:46:18.591Z,9.75
2017-11-07T22:48:46.284Z,9.86
2017-11-07T22:51:12.969Z,9.95
2017-11-07T22:53:39.633Z,9.86
2017-11-07T22:56:06.320Z,9.98
2017-11-07T22:58:33.712Z,10.04
2017-11-07T23:01:00.376Z,10.04
2017-11-07T23:03:27.057Z,9.92
2017-11-07T23:05:53.730Z,9.89
2017-11-07T23:08:20.404Z,9.93
2017-11-07T23:10:47.381Z,9.96
2017-11-07T23:13:19.141Z,9.97
2017-11-07T23:15:45.915Z,9.99
2017-11-07T23:18:13.361Z,10.01
2017-11-07T23:20:40.041Z,9.92
2017-11-07T23:23:06.718Z,9.99
2017-11-07T23:25:33.458Z,9.67
2017-11-07T23:28:00.124Z,9.74
2017-11-07T23:30:26.836Z,9.70
2017-11-07T23:32:53.501Z,9.68
2017-11-07T23:35:20.154Z,9.64
2017-11-07T23:37:46.853Z,9.76
2017-11-07T23:40:13.553Z,9.84
2017-11-07T23:42:40.684Z,9.84
2017-11-07T23:45:07.347Z,9.67
2017-11-07T23:47:34.806Z,9.75
2017-11-07T23:50:04.907Z,9.85
2017-11-07T23:52:31.623Z,9.84
2017-11-07T23:54:58.406Z,9.63
2017-11-07T23:57:25.121Z,9.63
2017-11-07T23:59:51.799Z,9.64
